Date,TemperatureHighF,TemperatureAvgF,TemperatureLowF,DewpointHighF,DewpointAvgF,DewpointLowF,HumidityHigh,HumidityAvg,HumidityLow,PressureMaxIn,PressureMinIn,WindSpeedMaxMPH,WindSpeedAvgMPH,GustSpeedMaxMPH,PrecipitationSumIn
2013-1-1,30,24,20,28,20,14,93,84,68,30.01,29.88,18,4,19,0.00
2013-1-2,23,20,19,18,15,12,92,83,69,30.15,29.97,16,6,17,0.00
2013-1-3,26,22,16,24,17,11,92,83,70,30.14,29.99,22,7,24,0.00
2013-1-4,31,26,25,24,19,16,90,75,58,30.11,29.96,31,13,32,0.00
2013-1-5,29,27,25,24,22,20,88,82,74,30.30,30.06,19,6,20,0.00
2013-1-6,33,32,29,32,28,23,98,87,77,30.10,29.89,17,7,20,0.00
2013-1-7,32,28,24,31,24,20,96,85,75,30.39,30.10,16,4,16,0.00
2013-1-8,40,26,13,25,20,12,98,78,47,30.31,30.20,14,2,14,0.00
2013-1-9,45,34,18,36,26,17,98,76,48,30.41,30.05,28,8,31,0.37
2013-1-10,42,32,22,31,27,20,95,81,60,30.59,30.33,10,2,13,0.00
2013-1-11,44,40,33,43,34,19,100,78,39,30.33,29.90,25,6,27,0.20
2013-1-12,55,48,39,51,46,39,100,95,83,30.04,29.96,14,3,14,0.01
2013-1-13,63,54,43,55,50,42,100,87,75,29.96,29.77,24,5,26,0.05
2013-1-14,56,31,25,54,26,20,96,83,70,30.39,29.79,37,7,37,0.04
2013-1-15,31,26,24,22,19,15,84,75,55,30.38,30.09,10,2,11,0.00
2013-1-16,35,31,27,30,24,20,88,77,65,30.09,29.80,22,5,24,0.00
2013-1-17,32,28,20,28,24,17,96,84,66,30.11,29.89,25,6,30,0.00
2013-1-18,29,21,15,18,12,6,92,68,53,30.41,30.08,22,7,23,0.00
2013-1-19,48,40,29,28,22,14,54,47,37,30.09,29.65,27,10,32,0.00
2013-1-20,45,27,17,30,18,10,91,72,44,30.06,29.55,53,14,53,0.00
2013-1-21,19,16,11,16,12,6,93,85,60,30.03,29.82,27,7,30,0.00
2013-1-22,11,5,3,9,3,-2,93,88,76,30.13,29.88,30,9,32,0.00
2013-1-23,11,7,3,6,3,0,91,85,72,30.16,30.01,16,4,18,0.00
2013-1-24,14,4,-6,10,0,-8,92,85,66,30.47,30.00,14,1,15,0.00
2013-1-25,13,7,-5,10,4,-8,91,88,75,30.45,29.98,9,1,10,0.00
2013-1-26,23,16,11,18,13,9,95,89,73,30.38,30.01,8,1,8,0.00
2013-1-27,29,22,11,20,16,9,95,80,62,30.49,30.27,10,1,11,0.00
2013-1-28,43,35,25,43,33,17,100,94,66,30.28,29.88,16,6,19,0.91
2013-1-29,57,44,34,53,44,34,100,99,80,30.02,29.73,19,4,20,0.53
2013-1-30,61,56,47,54,50,42,93,81,66,29.73,29.10,31,10,37,0.48
2013-1-31,47,24,17,43,20,13,98,86,72,29.72,29.12,41,16,49,0.14
2013-2-1,17,14,9,15,12,5,96,91,82,30.18,29.71,24,10,26,0.00
2013-2-2,17,13,9,15,9,3,92,83,75,30.19,29.89,16,4,19,0.00
2013-2-3,21,16,12,18,13,10,96,89,67,29.90,29.73,21,4,23,0.00
2013-2-4,21,16,13,17,14,10,95,89,78,29.94,29.83,25,4,27,0.00
2013-2-5,26,20,11,20,16,10,95,84,67,29.87,29.77,16,2,18,0.00
2013-2-6,26,20,6,24,16,4,96,83,61,30.32,29.85,14,4,18,0.00
2013-2-7,39,24,3,24,16,1,94,74,52,30.30,29.96,22,4,22,0.01
2013-2-8,34,27,14,33,24,12,97,88,73,30.08,29.70,29,7,30,0.30
2013-2-9,25,16,5,17,12,3,94,85,66,30.36,30.08,12,2,13,0.04
2013-2-10,46,24,0,21,11,-2,93,65,28,30.33,29.91,21,4,24,0.16
2013-2-11,48,36,30,43,31,19,97,80,50,29.92,29.60,31,10,37,0.08
2013-2-12,31,29,27,26,24,21,89,81,75,29.98,29.78,33,10,36,0.00
2013-2-13,40,29,24,25,23,21,92,79,52,29.88,29.66,12,2,14,0.00
2013-2-14,35,29,21,34,27,19,96,90,80,29.87,29.78,21,5,23,0.16
2013-2-15,35,29,21,32,22,13,89,76,65,30.03,29.79,31,8,32,0.00
2013-2-16,26,19,9,18,11,4,88,70,48,30.03,29.87,15,2,18,0.00
2013-2-17,16,13,9,14,9,5,94,84,69,30.16,29.86,20,4,26,0.00
2013-2-18,40,24,7,25,12,4,90,63,38,30.22,29.84,16,4,16,0.02
2013-2-19,42,31,18,37,26,13,98,83,51,29.84,29.56,32,10,32,0.28
2013-2-20,18,16,14,15,13,9,95,87,75,30.08,29.79,32,11,32,0.00
2013-2-21,22,16,10,16,12,7,94,84,68,30.34,30.06,16,4,19,0.00
2013-2-22,31,25,16,28,21,13,93,85,61,30.30,29.96,26,7,32,0.00
2013-2-23,35,30,26,32,27,22,97,91,83,29.97,29.84,20,4,20,0.11
2013-2-24,27,26,24,23,21,19,89,82,72,30.09,29.83,22,7,24,0.00
2013-2-25,38,27,21,25,21,18,95,79,52,30.20,30.08,9,2,11,0.02
2013-2-26,38,30,19,34,25,16,98,82,58,30.13,29.61,29,6,30,0.56
2013-2-27,37,35,32,36,33,31,99,94,86,29.61,29.53,21,4,24,0.57
2013-2-28,33,31,29,32,30,28,99,95,88,29.74,29.52,12,4,16,0.01
2013-3-1,29,25,23,28,23,20,99,92,84,29.92,29.73,13,4,14,0.00
2013-3-2,23,21,20,22,19,16,94,90,78,29.91,29.86,13,3,15,0.00
2013-3-3,24,21,18,21,18,15,94,88,73,29.91,29.83,22,5,24,0.00
2013-3-4,24,21,18,21,18,15,93,88,83,30.04,29.91,20,7,24,0.00
2013-3-5,37,27,20,25,21,17,94,79,59,30.05,29.78,13,3,14,0.24
2013-3-6,40,33,27,28,24,21,83,71,53,30.10,29.78,16,4,16,0.04
2013-3-7,33,31,29,31,29,27,98,93,83,30.24,30.08,16,4,16,0.00
2013-3-8,40,31,22,30,25,18,99,81,50,30.39,30.24,15,4,19,0.12
2013-3-9,52,32,16,31,24,15,99,76,36,30.40,30.16,10,1,10,0.00
2013-3-10,65,49,31,30,25,20,85,41,26,30.17,29.97,20,5,23,0.00
2013-3-11,59,51,44,43,29,25,93,44,32,29.99,29.65,30,9,34,0.17
2013-3-12,45,35,30,43,32,27,98,92,78,29.92,29.71,16,5,18,0.33
2013-3-13,32,27,21,27,22,16,97,82,66,29.99,29.83,31,8,32,0.01
2013-3-14,28,24,20,20,16,13,94,74,58,30.10,29.99,29,9,29,0.00
2013-3-15,32,27,17,30,25,15,98,90,75,30.05,29.79,23,6,24,0.01
2013-3-16,31,27,23,28,23,18,95,85,71,29.95,29.71,10,2,11,0.03
2013-3-17,30,23,15,23,16,12,96,76,54,30.25,29.94,14,2,14,0.06
2013-3-18,32,26,20,30,21,12,93,81,57,30.22,29.65,31,8,32,0.00
2013-3-19,34,28,23,33,25,19,99,88,69,29.84,29.64,23,8,29,0.07
2013-3-20,27,22,14,24,19,11,96,88,67,29.84,29.80,24,7,24,0.00
2013-3-21,25,20,10,23,16,8,96,88,68,29.80,29.72,21,6,25,0.00
2013-3-22,27,24,21,22,21,19,96,88,76,29.96,29.76,24,8,26,0.00
2013-3-23,34,28,23,25,22,18,90,79,63,30.02,29.92,18,4,18,0.00
2013-3-24,37,27,12,25,19,10,96,73,49,30.01,29.58,15,3,18,0.25
2013-3-25,37,31,27,31,27,21,96,84,67,29.72,29.52,14,4,16,0.18
2013-3-26,42,33,24,30,27,22,95,79,54,29.99,29.72,18,4,21,0.00
2013-3-27,36,32,28,31,27,22,97,82,66,30.08,29.97,23,8,25,0.00
2013-3-28,36,32,29,32,31,29,100,94,82,30.22,30.04,12,4,13,0.14
2013-3-29,47,37,30,34,28,22,95,72,43,30.21,30.16,17,2,21,0.00
2013-3-30,50,36,22,28,23,17,96,64,29,30.21,30.02,14,2,14,0.00
2013-3-31,51,42,32,42,31,20,94,70,40,30.02,29.63,19,5,22,0.06
2013-4-1,43,32,24,40,24,10,96,76,43,29.97,29.59,27,9,31,0.17
2013-4-2,32,26,21,24,16,7,94,66,42,30.13,29.96,27,9,30,0.00
2013-4-3,31,27,22,22,17,12,78,65,50,30.40,30.12,26,6,30,0.00
2013-4-4,54,34,16,22,14,5,95,54,15,30.34,29.93,16,3,21,0.00
2013-4-5,41,34,26,29,23,18,80,65,49,30.15,29.88,19,4,21,0.00
2013-4-6,52,37,20,22,15,7,92,49,18,30.28,29.99,17,4,18,0.02
2013-4-7,67,52,37,45,32,16,87,47,28,30.03,29.79,34,9,36,0.00
2013-4-8,68,51,29,50,38,28,98,66,32,30.08,29.83,23,5,28,0.02
2013-4-9,69,56,41,52,44,39,95,67,38,30.12,29.83,32,6,34,0.00
2013-4-10,66,48,41,62,47,40,100,97,75,29.96,29.79,34,2,36,1.45
2013-4-11,42,39,35,42,38,33,100,94,88,30.01,29.73,21,5,25,0.08
2013-4-12,53,44,37,52,42,33,97,93,82,29.81,29.49,23,8,26,0.49
2013-4-13,42,38,34,35,32,28,97,82,61,29.97,29.79,24,9,26,0.16
2013-4-14,47,40,33,35,32,26,91,74,56,30.12,29.96,21,5,21,0.00
2013-4-15,70,56,39,47,40,33,82,57,37,30.10,30.02,25,8,28,0.00
2013-4-16,66,55,47,58,50,44,97,83,63,30.22,30.02,23,7,27,0.30
2013-4-17,64,51,40,45,36,30,92,60,36,30.32,30.12,9,2,11,0.01
2013-4-18,78,66,51,60,51,34,73,58,43,30.14,29.75,31,11,37,0.00
2013-4-19,68,56,39,58,47,28,96,72,60,29.79,29.44,32,11,37,0.30
2013-4-20,39,34,31,32,25,17,95,70,50,30.40,29.78,40,11,41,0.03
2013-4-21,49,36,25,30,24,18,88,63,34,30.62,30.39,13,3,14,0.00
2013-4-22,60,46,30,29,25,21,78,47,27,30.51,30.29,21,6,25,0.00
2013-4-23,69,53,37,35,30,24,69,44,23,30.31,29.95,19,6,21,0.00
2013-4-24,60,48,34,54,41,32,96,78,43,30.10,29.65,33,10,36,0.32
2013-4-25,53,41,33,38,32,23,95,74,35,30.33,30.09,23,6,26,0.07
2013-4-26,56,43,30,41,30,23,99,67,33,30.48,30.33,13,2,14,0.01
2013-4-27,71,52,32,38,31,26,87,50,21,30.42,30.20,11,2,11,0.00
2013-4-28,64,53,43,48,41,33,90,67,41,30.20,29.98,31,9,32,0.11
2013-4-29,58,53,48,52,48,44,90,84,78,30.05,29.95,20,8,23,0.01
2013-4-30,70,60,54,52,50,47,89,70,48,30.23,30.05,23,7,23,0.00
2013-5-1,78,64,52,49,44,31,85,52,26,30.35,30.23,19,6,19,0.00
2013-5-2,78,64,47,37,29,21,64,30,13,30.41,30.25,18,6,20,0.01
2013-5-3,76,64,47,43,38,30,75,41,25,30.31,30.19,23,6,24,0.00
2013-5-4,75,61,48,46,36,28,69,42,19,30.28,30.12,19,6,19,0.00
2013-5-5,77,61,43,44,32,16,88,43,13,30.20,30.06,20,4,23,0.00
2013-5-6,77,60,40,48,35,23,82,43,19,30.15,30.02,16,4,18,0.02
2013-5-7,78,64,48,52,46,38,94,57,26,30.12,29.99,18,3,21,0.00
2013-5-8,70,60,53,56,52,47,96,75,50,30.05,29.95,14,2,16,0.18
2013-5-9,70,60,52,58,53,47,98,81,48,30.01,29.91,17,3,20,0.03
2013-5-10,73,58,47,59,52,45,97,84,56,30.00,29.76,23,4,27,1.70
2013-5-11,58,50,44,57,47,42,97,89,79,29.82,29.72,21,7,24,0.11
2013-5-12,49,41,34,46,31,24,93,71,45,30.01,29.75,36,13,38,0.08
2013-5-13,44,36,32,32,28,24,92,74,48,30.14,29.98,19,7,21,0.01
2013-5-14,52,48,44,42,35,23,88,63,37,30.12,29.92,16,5,17,0.01
2013-5-15,79,61,45,59,47,38,85,63,39,29.93,29.66,32,6,37,0.00
2013-5-16,73,60,48,54,44,35,96,62,27,30.03,29.77,26,4,29,0.00
2013-5-17,72,56,41,47,41,35,94,60,30,30.22,30.02,9,2,11,0.01
2013-5-18,76,63,53,54,46,40,73,54,36,30.22,30.12,14,3,14,0.00
2013-5-19,79,66,58,60,56,52,86,72,49,30.17,30.03,17,5,19,0.07
2013-5-20,86,72,59,64,60,57,94,69,42,30.09,29.92,14,4,18,0.00
2013-5-21,86,74,63,68,62,56,94,70,38,29.98,29.83,34,6,37,0.23
2013-5-22,85,72,61,66,61,56,98,73,39,29.89,29.74,22,6,27,0.22
2013-5-23,73,62,44,62,57,43,96,85,58,29.94,29.78,18,6,22,0.80
2013-5-24,45,41,37,43,37,33,97,86,67,30.24,29.93,19,6,23,0.04
2013-5-25,56,46,38,39,35,30,93,67,43,30.29,30.21,24,5,26,0.00
2013-5-26,60,50,41,39,35,28,88,59,32,30.28,30.19,20,5,22,0.00
2013-5-27,69,53,34,46,39,32,96,63,28,30.30,30.15,11,2,12,0.00
2013-5-28,74,60,50,64,56,42,97,86,66,30.17,29.95,16,4,18,2.17
2013-5-29,81,71,61,66,62,60,97,76,53,30.11,29.97,23,7,26,0.14
2013-5-30,83,71,60,70,63,59,97,79,51,30.22,30.11,18,2,21,0.13
2013-5-31,86,73,59,67,61,57,97,70,40,30.15,30.02,18,4,21,0.00
2013-6-1,84,73,66,66,63,60,84,71,49,30.06,29.82,23,6,24,0.00
2013-6-2,76,68,59,65,59,53,95,75,49,29.95,29.76,31,8,37,0.51
2013-6-3,60,53,46,54,43,32,90,72,38,30.09,29.93,13,4,14,0.00
2013-6-4,66,54,42,47,42,35,97,67,35,30.20,30.08,14,2,18,0.01
2013-6-5,76,59,42,50,45,40,95,63,35,30.23,30.01,14,3,16,0.00
2013-6-6,63,59,58,60,56,47,99,91,61,30.02,29.82,16,3,18,2.19
2013-6-7,60,57,54,60,56,53,100,96,89,29.87,29.82,11,3,12,0.07
2013-6-8,63,58,53,55,54,51,97,86,69,30.14,29.87,13,3,13,0.01
2013-6-9,78,62,47,56,51,44,99,71,34,30.23,30.10,9,2,10,0.00
2013-6-10,70,66,62,67,62,55,96,88,70,30.11,29.77,14,5,15,0.41
2013-6-11,67,63,60,63,60,58,98,90,78,29.91,29.74,21,8,23,0.19
2013-6-12,77,67,59,66,60,54,98,81,50,29.96,29.80,7,2,8,0.18
2013-6-13,66,62,56,64,60,54,99,94,86,29.85,29.48,19,4,21,0.66
2013-6-14,71,62,55,58,56,54,97,83,60,30.06,29.83,16,4,17,0.01
2013-6-15,75,63,51,59,52,43,97,71,38,30.13,30.03,15,3,17,0.00
2013-6-16,72,65,58,63,59,54,94,80,67,30.04,29.82,29,6,31,0.02
2013-6-17,79,69,59,61,58,52,97,70,44,29.98,29.91,20,5,21,0.00
2013-6-18,73,64,53,60,55,45,94,74,59,30.06,29.91,16,3,19,0.02
2013-6-19,72,59,46,50,46,44,95,66,40,30.23,30.06,11,2,12,0.00
2013-6-20,76,62,45,55,49,43,95,65,39,30.29,30.22,15,2,16,0.00
2013-6-21,81,66,49,58,51,45,95,63,33,30.32,30.22,9,2,10,0.00
2013-6-22,86,72,57,65,61,55,95,69,45,30.24,30.10,19,4,26,0.00
2013-6-23,87,77,69,69,65,61,89,68,44,30.18,30.09,18,5,22,0.00
2013-6-24,86,76,68,69,65,60,86,69,45,30.16,30.04,19,3,21,0.00
2013-6-25,83,73,66,67,64,62,89,76,55,30.07,29.90,27,7,28,0.02
2013-6-26,80,71,65,66,64,62,93,80,56,29.94,29.86,17,4,17,0.01
2013-6-27,73,67,63,70,65,62,97,93,84,29.88,29.70,9,2,10,0.26
2013-6-28,72,66,60,66,63,58,98,91,72,29.70,29.54,12,2,13,0.49
2013-6-29,75,65,60,64,61,58,98,89,60,29.76,29.54,14,3,14,0.62
2013-6-30,77,68,61,66,63,60,99,86,62,29.95,29.75,11,2,12,0.01
2013-7-1,70,65,63,68,62,59,97,91,83,30.09,29.92,16,3,16,0.42
2013-7-2,83,70,61,69,64,59,97,85,56,30.14,30.01,12,3,14,0.23
2013-7-3,85,74,65,71,67,64,99,79,51,30.23,30.13,13,3,15,0.01
2013-7-4,81,74,68,70,67,64,95,80,58,30.27,30.19,13,4,14,0.44
2013-7-5,82,73,66,70,67,63,97,82,60,30.22,30.15,23,4,25,0.00
2013-7-6,86,74,67,70,67,64,96,80,51,30.24,30.11,16,3,19,0.09
2013-7-7,79,72,68,70,65,62,95,79,59,30.16,30.05,18,6,20,0.01
2013-7-8,84,73,65,68,65,62,91,77,52,30.16,30.09,15,4,17,0.00
2013-7-9,82,72,67,72,68,65,95,86,67,30.14,29.99,13,3,14,0.16
2013-7-10,85,72,65,72,68,64,96,86,62,30.00,29.85,37,7,42,0.36
2013-7-11,73,66,60,64,56,50,95,72,46,30.12,29.93,16,4,16,0.00
2013-7-12,74,65,55,62,58,54,98,81,62,30.24,30.08,12,2,14,0.00
2013-7-13,78,70,59,67,62,56,92,77,62,30.34,30.20,13,2,13,0.00
2013-7-14,88,76,64,70,66,62,98,75,48,30.39,30.32,12,3,13,0.00
2013-7-15,88,77,67,73,69,66,96,77,54,30.40,30.33,10,2,14,0.00
2013-7-16,88,78,67,72,69,66,96,75,51,30.39,30.31,11,2,12,0.00
2013-7-17,89,79,68,76,71,66,96,77,52,30.35,30.22,15,2,16,0.00
2013-7-18,90,80,71,76,70,66,95,73,47,30.25,30.07,19,3,21,0.00
2013-7-19,89,80,73,73,70,67,90,73,52,30.10,29.86,23,8,24,0.07
2013-7-20,77,72,66,69,66,63,96,83,69,29.98,29.79,20,6,24,0.77
2013-7-21,81,71,63,68,63,59,97,78,52,30.05,29.97,11,2,11,0.00
2013-7-22,82,70,61,68,64,60,97,83,55,30.04,29.83,15,2,15,0.14
2013-7-23,81,69,62,67,64,60,98,85,54,29.84,29.72,16,4,18,1.05
2013-7-24,66,60,52,60,52,47,93,75,56,30.09,29.81,15,4,18,0.00
2013-7-25,74,60,47,53,50,46,98,72,44,30.18,30.08,14,2,16,0.00
2013-7-26,80,64,49,60,54,48,97,72,39,30.18,30.05,10,2,10,0.00
2013-7-27,72,65,57,64,60,56,95,83,65,30.06,29.88,16,4,17,0.08
2013-7-28,71,64,57,62,54,47,92,72,46,30.06,29.87,22,6,23,0.01
2013-7-29,69,61,56,55,52,48,86,72,49,30.23,30.04,20,6,24,0.00
2013-7-30,73,63,53,59,54,52,97,75,50,30.28,30.21,16,2,16,0.00
2013-7-31,78,66,52,60,55,51,97,72,47,30.23,29.99,11,2,13,0.00
2013-8-1,76,68,60,64,60,54,93,75,51,29.99,29.88,23,5,24,0.02
2013-8-2,76,65,58,62,57,51,98,78,45,29.99,29.93,19,5,22,0.00
2013-8-3,74,67,59,62,56,49,94,71,43,30.04,29.93,15,5,19,0.01
2013-8-4,71,62,56,57,54,51,89,74,51,30.15,30.03,18,4,18,0.00
2013-8-5,71,60,47,55,50,45,96,74,45,30.19,30.08,11,1,13,0.00
2013-8-6,79,66,51,59,53,49,96,68,39,30.10,30.03,13,3,13,0.00
2013-8-7,80,70,62,67,62,58,91,77,58,30.06,29.94,18,5,19,0.00
2013-8-8,81,72,66,72,67,63,96,85,69,30.05,29.96,16,4,16,0.18
2013-8-9,76,69,59,70,64,52,97,84,59,30.06,29.93,11,3,13,0.02
2013-8-10,74,65,57,59,53,48,91,68,42,30.18,30.05,13,3,14,0.00
2013-8-11,77,64,51,57,53,49,97,71,40,30.21,30.11,10,2,10,0.00
2013-8-12,75,63,54,64,58,52,95,85,56,30.13,29.92,12,2,13,0.05
2013-8-13,66,62,53,64,56,44,98,83,58,29.99,29.83,23,5,26,0.90
2013-8-14,66,58,53,53,49,45,94,74,51,30.18,29.96,22,5,22,0.04
2013-8-15,69,56,46,55,50,0,98,82,55,30.22,30.15,18,2,19,0.00
2013-8-16,75,60,46,58,50,45,99,73,39,30.27,30.18,9,1,10,0.00
2013-8-17,78,63,49,59,53,48,98,73,43,30.34,30.26,10,1,11,0.00
2013-8-18,77,65,55,60,56,53,97,77,51,30.30,30.19,15,2,18,0.00
2013-8-19,76,66,58,66,61,56,95,84,62,30.21,30.13,13,2,14,0.00
2013-8-20,82,66,51,65,57,50,99,76,42,30.23,30.15,14,2,16,0.00
2013-8-21,84,69,55,66,59,53,98,75,40,30.26,30.12,10,2,11,0.00
2013-8-22,81,71,60,70,64,59,95,79,52,30.15,30.02,19,4,20,0.00
2013-8-23,79,68,56,65,56,48,96,69,37,30.26,30.06,14,2,16,0.00
2013-8-24,79,63,49,55,50,44,97,69,31,30.39,30.25,10,2,12,0.00
2013-8-25,81,66,50,60,53,49,97,67,35,30.42,30.25,16,4,18,0.00
2013-8-26,84,72,65,67,61,56,97,70,48,30.28,30.04,23,6,24,1.02
2013-8-27,85,72,66,72,68,64,99,87,59,30.05,29.94,17,3,19,0.01
2013-8-28,81,73,68,72,69,66,97,88,68,30.02,29.91,12,2,15,0.11
2013-8-29,85,72,62,69,65,60,99,80,48,30.13,30.02,10,2,12,0.00
2013-8-30,84,73,60,69,64,59,99,77,51,30.10,29.84,16,4,19,0.00
2013-8-31,79,72,67,71,68,64,95,85,70,29.92,29.81,14,3,16,0.05
2013-9-1,83,70,64,69,66,62,98,89,60,29.91,29.82,19,2,21,1.00
2013-9-2,78,69,63,70,65,56,99,90,71,29.89,29.80,25,4,27,0.51
2013-9-3,63,60,56,59,56,54,95,88,78,30.06,29.87,15,6,21,0.04
2013-9-4,75,64,52,60,55,48,99,76,40,30.11,30.05,23,6,23,0.00
2013-9-5,66,60,47,60,49,41,92,69,46,30.28,30.06,17,4,18,0.10
2013-9-6,72,54,39,50,43,33,98,69,34,30.34,30.17,8,1,8,0.00
2013-9-7,73,58,46,61,53,45,97,86,46,30.18,29.97,11,2,13,0.18
2013-9-8,69,61,50,64,55,47,99,84,51,30.16,29.93,13,3,15,0.00
2013-9-9,76,59,44,64,54,43,99,85,59,30.17,30.07,15,3,17,0.04
2013-9-10,90,76,63,73,69,62,97,80,56,30.16,30.02,18,5,20,0.00
2013-9-11,89,80,70,74,70,64,97,74,48,30.17,30.03,26,5,29,0.00
2013-9-12,72,67,59,69,64,52,97,88,77,30.09,29.82,18,4,21,0.10
2013-9-13,60,53,48,56,48,43,94,83,72,30.08,29.84,16,4,19,0.11
2013-9-14,61,51,41,45,40,30,89,68,36,30.20,30.06,14,3,16,0.01
2013-9-15,65,52,40,54,45,38,97,77,48,30.22,30.10,12,2,13,0.00
2013-9-16,59,52,41,56,50,40,98,92,82,30.39,30.13,13,2,14,0.06
2013-9-17,69,49,34,46,39,34,100,76,32,30.49,30.31,11,2,13,0.00
2013-9-18,74,55,38,52,45,36,97,72,39,30.32,30.14,12,2,16,0.00
2013-9-19,77,60,46,58,52,45,96,78,45,30.19,30.07,12,2,13,0.00
2013-9-20,77,66,53,66,60,52,98,83,67,30.09,29.85,16,4,18,0.00
2013-9-21,69,62,53,64,59,50,98,92,83,29.85,29.69,28,4,29,1.45
2013-9-22,54,51,48,50,46,42,93,81,69,30.07,29.82,13,3,15,0.02
2013-9-23,58,50,40,44,42,39,95,75,53,30.18,30.06,14,2,15,0.00
2013-9-24,67,50,35,53,43,35,100,82,52,30.19,30.04,10,1,10,0.00
2013-9-25,71,53,39,54,45,38,100,79,37,30.06,29.97,8,1,9,0.00
2013-9-26,71,54,39,53,47,38,100,80,47,30.18,30.03,11,2,13,0.00
2013-9-27,71,56,43,54,49,42,99,80,47,30.28,30.18,11,2,12,0.00
2013-9-28,72,57,44,56,49,42,99,77,47,30.33,30.20,14,3,16,0.00
2013-9-29,73,59,47,57,51,45,96,76,50,30.21,30.05,13,3,14,0.00
2013-9-30,72,60,51,59,54,49,95,82,58,30.08,30.02,16,3,18,0.00
2013-10-1,74,62,53,60,56,52,98,82,49,30.11,30.02,16,3,18,0.00
2013-10-2,76,62,51,63,56,49,97,83,48,30.16,30.03,15,3,18,0.00
2013-10-3,77,60,43,65,55,42,99,85,60,30.17,30.05,12,2,15,0.04
2013-10-4,77,67,62,69,64,61,98,89,69,30.13,30.06,16,3,16,0.07
2013-10-5,79,66,60,67,63,59,99,90,62,30.14,30.03,11,2,13,0.02
2013-10-6,80,72,65,67,64,58,98,79,59,30.03,29.78,24,5,24,0.02
2013-10-7,73,56,47,59,48,38,96,76,54,30.12,29.71,30,10,34,0.72
2013-10-8,65,51,41,52,44,41,100,81,45,30.37,30.12,8,1,10,0.02
2013-10-9,70,51,37,47,41,36,99,72,34,30.42,30.30,13,1,14,0.00
2013-10-10,70,51,37,45,39,26,98,70,23,30.32,30.16,10,1,11,0.00
2013-10-11,74,56,45,49,42,36,92,66,29,30.18,30.11,13,2,13,0.00
2013-10-12,78,58,43,55,46,39,93,67,35,30.23,30.13,13,2,15,0.00
2013-10-13,69,60,53,59,53,43,97,79,59,30.32,30.21,14,2,14,0.60
2013-10-14,63,54,44,58,49,41,99,83,57,30.39,30.30,14,2,16,0.23
2013-10-15,66,56,43,56,51,41,97,84,68,30.31,29.99,15,4,17,0.00
2013-10-16,62,58,53,59,54,50,96,87,71,30.00,29.82,19,6,21,0.43
2013-10-17,61,52,45,51,48,44,98,86,56,29.93,29.72,20,5,22,0.33
2013-10-18,58,51,46,46,42,35,94,74,44,29.97,29.82,23,8,26,0.02
2013-10-19,55,48,41,46,41,38,94,76,59,29.95,29.69,23,6,31,0.24
2013-10-20,54,45,38,40,38,35,95,77,53,30.01,29.85,26,8,28,0.09
2013-10-21,64,54,46,47,36,31,86,53,31,30.02,29.83,29,6,31,0.01
2013-10-22,49,43,37,46,36,28,95,76,52,29.90,29.80,24,8,31,0.27
2013-10-23,45,38,35,39,34,30,94,86,66,29.86,29.73,18,4,20,0.11
2013-10-24,38,34,32,36,33,31,99,95,85,30.06,29.84,18,8,21,0.53
2013-10-25,45,38,34,39,34,29,98,86,56,30.25,30.06,24,7,26,0.20
2013-10-26,43,39,35,35,28,24,92,64,52,30.17,29.82,29,10,32,0.03
2013-10-27,42,39,36,38,34,31,97,84,65,30.08,29.89,18,6,19,0.21
2013-10-28,51,38,29,40,34,28,97,84,62,30.36,30.07,9,1,10,0.01
2013-10-29,52,41,31,35,32,27,92,71,44,30.43,30.28,7,1,9,0.00
2013-10-30,64,46,32,42,36,30,96,73,35,30.29,30.10,11,1,13,0.00
2013-10-31,64,56,39,58,53,37,97,90,77,30.10,29.41,23,6,26,0.70
2013-11-1,60,54,48,56,46,38,93,74,60,29.70,29.28,41,11,43,0.20
2013-11-2,49,44,37,44,40,35,95,88,75,29.99,29.64,16,5,20,0.13
2013-11-3,39,33,25,35,27,20,94,80,55,30.50,29.99,15,3,15,0.00
2013-11-4,41,32,21,25,18,12,96,61,33,30.60,30.43,18,4,18,0.00
2013-11-5,51,42,32,31,26,17,72,52,43,30.50,30.34,16,4,18,0.00
2013-11-6,65,53,39,55,42,28,95,67,53,30.35,29.86,19,6,23,0.25
2013-11-7,55,40,33,54,37,24,97,88,61,30.06,29.86,21,7,24,0.43
2013-11-8,41,36,32,32,30,26,97,79,63,30.25,30.01,23,7,23,0.03
2013-11-9,50,41,31,42,29,24,88,63,42,30.24,29.86,27,6,31,0.08
2013-11-10,46,40,36,42,35,29,95,81,68,30.22,29.85,34,10,40,0.37
2013-11-11,42,36,28,35,31,27,99,80,57,30.21,29.99,24,7,26,0.09
2013-11-12,31,27,25,27,23,19,98,86,65,30.40,30.13,19,5,21,0.00
2013-11-13,33,28,24,25,22,17,95,77,61,30.43,30.21,21,6,23,0.01
2013-11-14,48,37,29,20,17,14,61,45,28,30.21,30.10,22,7,24,0.12
2013-11-15,52,42,32,28,20,16,62,43,25,30.15,30.07,19,4,21,0.01
2013-11-16,58,46,30,44,36,27,92,67,51,30.26,30.02,14,4,16,0.00
2013-11-17,60,55,49,56,50,39,94,85,49,30.03,29.41,33,10,33,0.38
2013-11-18,56,43,34,45,33,25,93,70,54,29.99,29.45,45,15,50,0.09
2013-11-19,35,32,23,28,24,20,91,74,61,30.42,29.99,23,5,25,0.01
2013-11-20,46,32,20,24,16,7,96,58,21,30.51,30.38,16,4,17,0.00
2013-11-21,39,36,33,37,27,10,95,73,37,30.43,30.24,16,3,16,0.10
2013-11-22,47,41,32,46,39,27,100,95,82,30.25,30.03,21,4,23,0.12
2013-11-23,32,26,18,27,20,8,98,77,60,30.23,30.07,34,10,42,0.00
2013-11-24,23,18,15,16,10,4,88,69,48,30.41,30.22,29,8,31,0.00
2013-11-25,29,22,12,23,13,8,91,70,44,30.38,30.13,24,7,27,0.00
2013-11-26,32,30,28,31,28,23,99,90,79,30.15,29.75,18,3,19,0.00
2013-11-27,30,27,21,30,25,14,99,91,68,29.97,29.67,25,5,28,0.00
2013-11-28,26,22,19,20,16,13,88,77,66,30.36,29.97,23,6,26,0.00
2013-11-29,33,23,11,24,17,9,96,81,57,30.67,30.36,8,1,9,0.01
2013-11-30,32,23,10,22,17,5,96,80,63,30.64,30.19,16,3,22,0.00
2013-12-1,36,30,20,30,26,18,95,83,70,30.19,29.94,10,1,11,0.00
2013-12-2,41,34,28,33,30,26,93,86,70,29.94,29.84,8,1,8,0.22
2013-12-3,40,30,19,33,28,18,99,93,76,29.95,29.87,6,1,7,0.10
2013-12-4,54,42,32,42,37,31,99,84,60,30.01,29.87,18,3,19,0.32
2013-12-5,60,48,34,54,43,32,93,82,75,30.05,29.79,18,7,23,0.06
2013-12-6,34,30,25,32,27,22,99,89,76,30.25,30.02,12,3,15,0.04
2013-12-7,26,23,20,24,18,14,93,82,73,30.54,30.23,21,5,22,0.00
2013-12-8,26,21,16,22,16,14,94,81,65,30.54,30.06,21,3,23,0.00
2013-12-9,35,31,26,34,27,19,97,86,71,30.07,29.87,27,9,31,0.06
2013-12-10,26,22,19,20,15,3,94,74,42,30.09,29.90,33,11,39,0.00
2013-12-11,20,18,15,18,15,13,94,88,80,30.27,30.08,23,7,24,0.00
2013-12-12,16,14,11,14,8,2,94,76,54,30.32,30.09,25,8,28,0.00
2013-12-13,25,20,15,20,15,5,88,81,64,30.27,30.06,26,7,27,0.00
2013-12-14,30,22,16,28,20,13,96,92,86,30.27,29.62,24,4,24,0.00
2013-12-15,29,23,15,28,21,14,99,93,84,29.88,29.56,29,8,31,0.00
2013-12-16,20,12,-2,14,9,-4,95,86,69,30.10,29.88,17,5,19,0.00
2013-12-17,25,19,-1,24,16,-3,98,90,79,30.03,29.85,19,4,21,0.00
2013-12-18,27,24,22,22,21,16,93,85,76,30.08,29.91,23,9,26,0.00
2013-12-19,43,33,22,32,24,15,86,70,60,30.03,29.93,19,5,19,0.46
2013-12-20,50,42,35,49,39,31,98,89,67,29.96,29.80,19,5,21,0.52
2013-12-21,54,48,40,53,47,39,100,97,94,29.82,29.62,21,4,23,1.57
2013-12-22,62,49,33,59,46,31,100,92,74,29.97,29.46,34,8,37,0.35
2013-12-23,38,32,26,37,29,20,99,89,79,30.24,29.94,24,6,26,0.02
2013-12-24,27,20,14,23,17,10,95,87,75,30.43,30.16,26,7,29,0.00
2013-12-25,23,16,5,19,11,3,94,80,63,30.44,30.14,12,3,14,0.00
2013-12-26,30,25,21,26,22,17,96,87,75,30.27,30.03,28,8,30,0.00
2013-12-27,34,28,22,29,23,16,90,83,76,30.27,30.13,17,5,19,0.00
2013-12-28,47,40,33,32,29,26,77,64,54,30.13,29.98,22,8,24,0.07
2013-12-29,41,38,28,37,31,25,97,78,58,29.98,29.63,20,3,23,0.14
2013-12-30,28,18,14,27,13,6,96,82,67,30.16,29.79,22,4,22,0.00
2013-12-31,19,16,14,17,12,8,94,84,77,30.21,29.95,27,8,98,0.00
2014-1-1,20,16,15,15,13,12,92,88,78,30.31,30.11,15,2,98,0.00
2014-1-2,16,11,3,13,8,-2,92,89,84,30.12,29.81,16,3,18,0.00